fbpx

Weather

Glasgow International Airport – EGPF

METAR:

EGPF 240850Z AUTO 20010KT 9999 -RA //////TCU 09/07 Q0987


TAF:

TAF AMD EGPF 240717Z 2407/2506 23015KT 9999 FEW015 SCT030 TEMPO 2407/2410 6000 RA BKN014 PROB40 TEMPO 2407/2408 4000 +RA BKN008 PROB30 TEMPO 2408/2506 23015G25KT TEMPO 2412/2418 6000 SHRA PROB40 TEMPO 2500/2506 6000 SHRA BKN014


Prestwick International Airport – EGPK

METAR:

EGPK 240850Z 19004KT 160V230 9999 FEW015 SCT028 BKN045 09/08 Q0988


TAF:

TAF EGPK 240455Z 2406/2506 17018G30KT 9999 FEW015 SCT035 TEMPO 2406/2408 6000 RA BKN014 PROB30 TEMPO 2406/2407 18025G40KT 4000 +RA BECMG 2407/2410 20012KT TEMPO 2407/2410 22018G30KT PROB30 TEMPO 2410/2424 21015G25KT PROB30 TEMPO 2412/2418 6000 SHRA PROB30 TEMPO 2500/2506 6000 SHRA

Call Now ButtonCall us now